Time;durP1;ratioP1;P1;durP2;ratioP2;P2;SDS_P1;SDS_P2;PMS_P1;PMS_P2;Temp;Humidity;BMP_temperature;BMP_pressure;BME280_temperature;BME280_humidity;BME280_pressure;Samples;Min_cycle;Max_cycle;Signal;HPM_P1;HPM_P2
2023/09/27 00:01:57;;;;;;;4.03;2.53;;;11.90;99.90;;;12.96;100.00;98626.72;5025773;28;20457;-79
2023/09/27 00:04:31;;;;;;;3.53;2.50;;;11.90;99.90;;;12.90;100.00;98624.88;5026004;28;20493;-79
2023/09/27 00:07:02;;;;;;;6.10;2.60;;;11.90;99.90;;;12.85;100.00;98619.34;5026070;28;20569;-79
2023/09/27 00:09:32;;;;;;;4.33;2.00;;;11.80;99.90;;;12.84;100.00;98625.63;5025861;28;20458;-78
2023/09/27 00:12:04;;;;;;;5.17;2.57;;;11.70;99.90;;;12.79;100.00;98622.72;5026607;28;20462;-79
2023/09/27 00:14:35;;;;;;;4.70;2.57;;;11.60;99.90;;;12.73;100.00;98624.31;5025151;28;20532;-78
2023/09/27 00:17:05;;;;;;;4.20;2.43;;;11.60;99.90;;;12.67;100.00;98621.63;5025846;28;20851;-78
2023/09/27 00:19:36;;;;;;;2.90;2.30;;;11.70;99.90;;;12.65;100.00;98616.53;5023602;28;20464;-79
2023/09/27 00:22:06;;;;;;;2.40;2.20;;;11.70;99.90;;;12.65;100.00;98618.34;5025202;28;20458;-78
2023/09/27 00:24:36;;;;;;;2.93;2.40;;;11.70;99.90;;;12.59;100.00;98620.72;5026701;28;20528;-78
2023/09/27 00:27:07;;;;;;;3.30;2.47;;;11.60;99.90;;;12.53;100.00;98618.81;5025295;28;20480;-79
2023/09/27 00:29:36;;;;;;;10.60;3.30;;;11.60;99.90;;;12.45;100.00;98623.38;5026495;28;20469;-79
2023/09/27 00:32:08;;;;;;;2.73;2.30;;;11.50;99.90;;;12.44;100.00;98619.94;5025247;28;20461;-79
2023/09/27 00:34:39;;;;;;;3.77;2.23;;;11.50;99.90;;;12.52;100.00;98613.78;5023747;28;20500;-79
2023/09/27 00:37:09;;;;;;;3.20;2.40;;;11.50;99.90;;;12.51;100.00;98612.97;5026061;28;20528;-78
2023/09/27 00:39:39;;;;;;;12.17;3.40;;;11.50;99.90;;;12.45;100.00;98616.34;5026858;28;20474;-79
2023/09/27 00:42:08;;;;;;;2.60;2.13;;;11.50;99.90;;;12.42;100.00;98614.09;5025344;28;20504;-79
2023/09/27 00:44:37;;;;;;;3.10;2.40;;;11.50;99.90;;;12.40;100.00;98602.13;5026798;28;20481;-79
2023/09/27 00:47:09;;;;;;;4.97;2.23;;;11.50;99.90;;;12.41;100.00;98588.84;5025449;28;21105;-79
2023/09/27 00:49:41;;;;;;;4.83;2.50;;;11.50;99.90;;;12.40;100.00;98576.72;5025483;28;20450;-78
2023/09/27 00:52:13;;;;;;;3.70;2.70;;;11.30;99.90;;;12.41;100.00;98562.63;5025928;28;20466;-79
2023/09/27 00:54:43;;;;;;;2.77;2.30;;;11.30;99.90;;;12.38;100.00;98562.16;5025740;28;20498;-79
2023/09/27 00:57:14;;;;;;;2.40;2.20;;;11.30;99.90;;;12.35;100.00;98573.03;5025780;28;20965;-79
2023/09/27 00:59:45;;;;;;;3.93;2.37;;;11.20;99.90;;;12.22;100.00;98586.78;5025912;28;20461;-79
2023/09/27 01:02:16;;;;;;;3.00;2.33;;;11.20;99.90;;;12.19;100.00;98584.53;5026230;28;20461;-79
2023/09/27 01:04:49;;;;;;;4.17;2.00;;;11.20;99.90;;;12.21;100.00;98577.31;5024868;28;20470;-79
2023/09/27 01:07:19;;;;;;;2.77;2.40;;;11.30;99.90;;;12.26;100.00;98569.69;5023223;28;20479;-79
2023/09/27 01:09:49;;;;;;;11.00;2.87;;;11.30;99.90;;;12.23;100.00;98561.38;5025409;28;20469;-79
2023/09/27 01:12:19;;;;;;;4.63;2.23;;;11.30;99.90;;;12.23;100.00;98559.59;5025070;28;20813;-79
2023/09/27 01:14:51;;;;;;;4.60;2.57;;;11.20;99.90;;;12.17;100.00;98560.31;5024948;28;20549;-79
2023/09/27 01:17:20;;;;;;;10.47;2.10;;;11.30;99.90;;;12.16;100.00;98569.19;5024703;28;20505;-79
2023/09/27 01:19:52;;;;;;;7.00;2.10;;;11.20;99.90;;;12.08;100.00;98566.66;5024812;28;20879;-79
2023/09/27 01:22:22;;;;;;;3.20;2.47;;;11.10;99.90;;;12.04;100.00;98565.41;5026252;28;20489;-79
2023/09/27 01:24:58;;;;;;;4.70;2.20;;;11.10;99.90;;;12.07;100.00;98570.28;5025020;28;20816;-78
2023/09/27 01:27:29;;;;;;;3.43;2.40;;;11.10;99.90;;;12.06;100.00;98572.09;5025177;28;21018;-79
2023/09/27 01:29:58;;;;;;;11.63;2.27;;;11.10;99.90;;;12.06;100.00;98574.72;5025306;28;20465;-79
2023/09/27 01:32:27;;;;;;;4.60;2.43;;;11.10;99.90;;;12.06;100.00;98574.72;5024544;28;20466;-79
2023/09/27 01:34:57;;;;;;;3.10;2.13;;;11.00;99.90;;;12.03;100.00;98585.56;5025729;28;20571;-78
2023/09/27 01:37:28;;;;;;;3.90;2.03;;;11.00;99.90;;;11.95;100.00;98584.84;5027210;28;20474;-79
2023/09/27 01:39:59;;;;;;;2.83;2.30;;;10.90;99.90;;;11.91;100.00;98584.38;5026240;28;20456;-78
2023/09/27 01:42:29;;;;;;;3.10;2.23;;;11.00;99.90;;;11.95;100.00;98587.47;5024523;28;20989;-79
2023/09/27 01:44:58;;;;;;;4.30;2.03;;;10.90;99.90;;;11.93;100.00;98592.91;5026870;28;20473;-79
2023/09/27 01:47:29;;;;;;;3.03;2.40;;;10.80;99.90;;;11.89;100.00;98612.59;5025849;28;20472;-78
2023/09/27 01:49:59;;;;;;;4.43;2.40;;;10.90;99.90;;;11.86;100.00;98625.25;5025535;28;20454;-79
2023/09/27 01:52:30;;;;;;;5.33;2.70;;;10.80;99.90;;;11.81;100.00;98628.41;5025166;28;20478;-78
2023/09/27 01:55:01;;;;;;;2.30;2.10;;;10.80;99.90;;;11.76;100.00;98622.09;5024955;28;20485;-78
2023/09/27 01:57:32;;;;;;;2.27;1.80;;;10.90;99.90;;;11.77;100.00;98621.06;5024010;28;20466;-78
2023/09/27 02:00:05;;;;;;;3.20;2.57;;;10.90;99.90;;;11.80;100.00;98631.22;5024919;28;20473;-78
2023/09/27 02:02:36;;;;;;;2.90;2.13;;;10.80;99.90;;;11.81;100.00;98638.88;5024099;28;20458;-78
2023/09/27 02:05:09;;;;;;;7.20;2.93;;;10.70;99.90;;;11.78;100.00;98634.00;5024199;28;21050;-79
2023/09/27 02:07:39;;;;;;;3.90;2.33;;;10.70;99.90;;;11.66;100.00;98632.00;5025601;28;20464;-79
2023/09/27 02:10:12;;;;;;;2.83;1.83;;;10.80;99.90;;;11.66;100.00;98630.19;5024652;28;20465;-78
2023/09/27 02:12:43;;;;;;;5.37;2.20;;;10.70;99.90;;;11.65;100.00;98632.97;5024262;28;20863;-79
2023/09/27 02:15:16;;;;;;;3.33;2.30;;;10.60;99.90;;;11.57;100.00;98636.47;5023366;28;20859;-79
2023/09/27 02:17:47;;;;;;;2.83;2.17;;;10.70;99.90;;;11.50;100.00;98640.81;5023495;28;21308;-79
2023/09/27 02:20:18;;;;;;;6.63;2.20;;;10.60;99.90;;;11.48;100.00;98638.38;5024164;28;20548;-79
2023/09/27 02:22:49;;;;;;;2.60;2.23;;;10.60;99.90;;;11.45;100.00;98628.22;5024815;28;20470;-78
2023/09/27 02:25:23;;;;;;;6.47;2.23;;;10.60;99.90;;;11.47;100.00;98641.16;5025068;28;20488;-79
2023/09/27 02:27:53;;;;;;;3.80;2.37;;;10.50;99.90;;;11.48;100.00;98648.03;5026737;28;20574;-79
2023/09/27 02:30:24;;;;;;;4.03;2.57;;;10.50;99.90;;;11.48;100.00;98648.03;5027123;28;20961;-79
2023/09/27 02:32:54;;;;;;;2.73;1.90;;;10.50;99.90;;;11.48;100.00;98643.63;5029396;28;20565;-79
2023/09/27 02:35:24;;;;;;;3.50;2.23;;;10.40;99.90;;;11.46;100.00;98645.59;5028473;28;20544;-79
2023/09/27 02:37:55;;;;;;;2.57;2.10;;;10.40;99.90;;;11.47;100.00;98652.47;5027631;28;20504;-78
2023/09/27 02:40:28;;;;;;;7.30;2.17;;;10.40;99.90;;;11.45;100.00;98654.41;5028582;28;20545;-77
2023/09/27 02:42:57;;;;;;;3.87;1.93;;;10.50;99.90;;;11.40;100.00;98646.31;5028889;28;20512;-79
2023/09/27 02:45:28;;;;;;;3.30;2.00;;;10.60;99.90;;;11.41;100.00;98650.56;5028429;28;20474;-78
2023/09/27 02:47:58;;;;;;;5.90;2.10;;;10.50;99.90;;;11.40;100.00;98643.69;5028193;28;20457;-79
2023/09/27 02:50:28;;;;;;;4.00;2.60;;;10.50;99.90;;;11.37;100.00;98648.47;5028703;28;21032;-79
2023/09/27 02:52:57;;;;;;;3.70;2.10;;;10.40;99.90;;;11.30;100.00;98637.06;5029071;28;20516;-79
2023/09/27 02:55:29;;;;;;;7.50;2.60;;;10.30;99.90;;;11.26;100.00;98630.56;5028025;28;20493;-79
2023/09/27 02:58:00;;;;;;;3.10;2.20;;;10.30;99.90;;;11.20;100.00;98613.75;5028057;28;20500;-79
2023/09/27 03:00:30;;;;;;;13.23;2.40;;;10.40;99.90;;;11.22;100.00;98611.75;5028126;28;20843;-78
2023/09/27 03:03:01;;;;;;;5.60;2.43;;;10.20;99.90;;;11.28;100.00;98616.28;5029180;28;21038;-79
2023/09/27 03:05:36;;;;;;;5.93;2.20;;;10.20;99.90;;;11.27;100.00;98619.09;5029058;28;20995;-79
2023/09/27 03:08:07;;;;;;;6.70;2.13;;;10.20;99.90;;;11.16;100.00;98612.47;5027110;28;20464;-78
2023/09/27 03:10:40;;;;;;;2.40;2.20;;;10.30;99.90;;;11.19;100.00;98608.69;5027530;28;20465;-77
2023/09/27 03:13:09;;;;;;;3.63;2.53;;;10.30;99.90;;;11.20;100.00;98618.16;5027539;28;20866;-79
2023/09/27 03:15:41;;;;;;;12.00;2.20;;;10.30;99.90;;;11.16;100.00;98615.09;5027579;28;20498;-78
2023/09/27 03:18:11;;;;;;;2.40;2.20;;;10.20;99.90;;;11.13;100.00;98612.84;5027455;28;20988;-78
2023/09/27 03:20:41;;;;;;;2.93;2.07;;;10.20;99.90;;;11.13;100.00;98607.59;5027888;28;21087;-78
2023/09/27 03:23:12;;;;;;;2.93;2.03;;;10.20;99.90;;;11.15;100.00;98610.84;5027403;28;20450;-78
2023/09/27 03:25:42;;;;;;;4.20;1.83;;;10.20;99.90;;;11.11;100.00;98601.72;5027411;28;20474;-78
2023/09/27 03:28:13;;;;;;;2.40;2.00;;;10.20;99.90;;;11.11;100.00;98604.31;5028279;28;20999;-78
2023/09/27 03:30:44;;;;;;;2.73;2.00;;;10.10;99.90;;;11.09;100.00;98601.09;5026887;28;20469;-78
2023/09/27 03:33:13;;;;;;;3.30;2.23;;;10.10;99.90;;;11.08;100.00;98604.69;5027345;28;20466;-77
2023/09/27 03:35:43;;;;;;;4.70;2.17;;;10.10;99.90;;;11.08;100.00;98617.78;5027429;28;20859;-78
2023/09/27 03:38:13;;;;;;;3.93;2.33;;;10.10;99.90;;;11.10;100.00;98623.66;5027441;28;20466;-78
2023/09/27 03:40:45;;;;;;;5.53;2.23;;;10.00;99.90;;;11.10;100.00;98623.66;5027926;28;20498;-78
2023/09/27 03:43:15;;;;;;;3.43;2.23;;;10.10;99.90;;;11.06;100.00;98625.00;5027250;28;20968;-78
2023/09/27 03:45:46;;;;;;;5.03;2.50;;;10.10;99.90;;;11.04;100.00;98625.16;5028230;28;20520;-78
2023/09/27 03:48:15;;;;;;;3.93;2.40;;;9.90;99.90;;;11.02;100.00;98626.31;5027516;28;20485;-78
2023/09/27 03:50:45;;;;;;;4.73;2.40;;;9.90;99.90;;;11.02;100.00;98623.72;5027866;28;20563;-78
2023/09/27 03:53:17;;;;;;;5.47;2.40;;;9.90;99.90;;;11.02;100.00;98624.53;5026140;28;20462;-78
2023/09/27 03:55:49;;;;;;;8.57;2.60;;;10.00;99.90;;;11.01;100.00;98624.69;5026446;28;20839;-78
2023/09/27 03:58:18;;;;;;;4.10;2.43;;;10.00;99.90;;;10.96;100.00;98617.38;5025921;28;20465;-78
2023/09/27 04:00:48;;;;;;;8.60;2.50;;;10.00;99.90;;;10.94;100.00;98621.16;5027048;28;20464;-77
2023/09/27 04:03:20;;;;;;;2.03;1.83;;;9.90;99.90;;;10.92;100.00;98630.97;5026245;28;20874;-78
2023/09/27 04:05:51;;;;;;;5.50;2.93;;;9.90;99.90;;;10.88;100.00;98634.94;5025220;28;20942;-78
2023/09/27 04:08:21;;;;;;;4.53;1.97;;;9.90;99.90;;;10.82;100.00;98638.25;5025550;28;20495;-78
2023/09/27 04:10:53;;;;;;;2.83;2.13;;;9.90;99.90;;;10.84;100.00;98647.56;5026225;28;20553;-78
2023/09/27 04:13:24;;;;;;;7.00;2.40;;;9.90;99.90;;;10.83;100.00;98652.97;5025467;28;20458;-78
2023/09/27 04:15:53;;;;;;;3.20;2.20;;;9.90;99.90;;;10.77;100.00;98651.84;5025106;28;20494;-78
2023/09/27 04:18:24;;;;;;;3.43;2.43;;;9.90;99.90;;;10.82;100.00;98651.34;5027458;28;20910;-78
2023/09/27 04:20:53;;;;;;;6.80;2.67;;;9.80;99.90;;;10.75;100.00;98645.97;5026211;28;20462;-77
2023/09/27 04:23:22;;;;;;;4.03;2.47;;;9.90;99.90;;;10.78;100.00;98650.88;5027025;28;20489;-77
2023/09/27 04:25:54;;;;;;;2.60;2.20;;;9.90;99.90;;;10.73;100.00;98657.59;5026345;28;20466;-78
2023/09/27 04:28:25;;;;;;;4.93;2.37;;;9.80;99.90;;;10.69;100.00;98661.56;5026853;28;20462;-78
2023/09/27 04:30:56;;;;;;;2.90;2.40;;;9.80;99.90;;;10.66;100.00;98660.06;5027172;28;20454;-78
2023/09/27 04:33:27;;;;;;;2.80;2.17;;;9.80;99.90;;;10.67;100.00;98646.03;5025644;28;20465;-78
2023/09/27 04:35:56;;;;;;;4.00;2.27;;;9.90;99.90;;;10.71;100.00;98644.69;5024720;28;20536;-78
2023/09/27 04:38:26;;;;;;;3.93;2.77;;;9.80;99.90;;;10.68;100.00;98647.66;5025863;28;20458;-77
2023/09/27 04:40:59;;;;;;;2.40;2.10;;;9.70;99.90;;;10.69;100.00;98644.03;5026213;28;20457;-78
2023/09/27 04:43:31;;;;;;;2.13;1.93;;;9.60;99.90;;;10.66;100.00;98647.00;5027483;28;20463;-78
2023/09/27 04:46:22;;;;;;;3.03;2.43;;;9.70;99.90;;;10.69;100.00;98646.66;5026122;28;20466;-77
2023/09/27 04:48:53;;;;;;;9.80;2.33;;;9.60;99.90;;;10.69;100.00;98638.03;5027265;28;20532;-78
2023/09/27 04:51:23;;;;;;;3.60;2.00;;;9.60;99.90;;;10.68;100.00;98628.53;5026554;28;20458;-78
2023/09/27 04:53:53;;;;;;;5.13;2.13;;;9.70;99.90;;;10.69;100.00;98630.16;5026164;28;20531;-78
2023/09/27 04:56:26;;;;;;;4.03;2.50;;;9.70;99.90;;;10.64;100.00;98624.63;5027021;28;20494;-78
2023/09/27 04:59:01;;;;;;;2.80;2.20;;;9.60;99.90;;;10.51;100.00;98626.03;5025028;28;20465;-78
2023/09/27 05:01:30;;;;;;;2.60;2.40;;;9.70;99.90;;;10.56;100.00;98628.09;5024379;28;20559;-78
2023/09/27 05:04:00;;;;;;;2.77;2.33;;;9.70;99.90;;;10.59;100.00;98628.56;5024828;28;20520;-78
2023/09/27 05:06:30;;;;;;;2.63;2.30;;;9.60;99.90;;;10.62;100.00;98631.84;5025770;28;20494;-78
2023/09/27 05:09:01;;;;;;;4.70;2.33;;;9.50;99.90;;;10.59;100.00;98630.38;5024784;28;20545;-77
2023/09/27 05:11:33;;;;;;;2.87;2.03;;;9.60;99.90;;;10.56;100.00;98634.16;5020608;28;20508;-78
2023/09/27 05:14:03;;;;;;;8.57;4.50;;;9.50;99.90;;;10.52;100.00;98635.47;5020871;28;20462;-78
2023/09/27 05:16:37;;;;;;;2.47;2.27;;;9.60;99.90;;;10.54;100.00;98637.94;5023647;28;20501;-79
2023/09/27 05:19:07;;;;;;;2.90;1.97;;;9.60;99.90;;;10.51;100.00;98639.09;5025309;28;20568;-78
2023/09/27 05:21:38;;;;;;;3.27;2.10;;;9.50;99.90;;;10.51;100.00;98643.50;5025118;28;20477;-78
2023/09/27 05:24:10;;;;;;;2.83;2.27;;;9.50;99.90;;;10.49;100.00;98640.22;5023577;28;20466;-78
2023/09/27 05:26:42;;;;;;;4.30;2.27;;;9.40;99.90;;;10.49;100.00;98641.06;5020504;28;20481;-78
2023/09/27 05:29:13;;;;;;;7.60;2.00;;;9.40;99.90;;;10.46;100.00;98635.34;5022848;28;20633;-77
2023/09/27 05:31:44;;;;;;;3.70;2.70;;;9.40;99.90;;;10.45;100.00;98639.75;5021967;28;20517;-78
2023/09/27 05:34:14;;;;;;;3.23;2.13;;;9.50;99.90;;;10.46;100.00;98641.41;5017413;28;20476;-78
2023/09/27 05:36:46;;;;;;;2.37;2.17;;;9.50;99.90;;;10.46;100.00;98641.41;5023128;28;20617;-77
2023/09/27 05:39:17;;;;;;;2.03;1.60;;;9.40;99.90;;;10.44;100.00;98648.63;5021289;28;20446;-78
2023/09/27 05:41:48;;;;;;;3.90;2.20;;;9.40;99.90;;;10.41;100.00;98640.28;5021933;28;20839;-77
2023/09/27 05:44:20;;;;;;;3.50;2.57;;;9.40;99.90;;;10.41;100.00;98629.84;5024073;28;20956;-78
2023/09/27 05:46:49;;;;;;;5.90;2.20;;;9.30;99.90;;;10.40;100.00;98626.41;5021588;28;20499;-77
2023/09/27 05:49:21;;;;;;;2.70;2.07;;;9.40;99.90;;;10.43;100.00;98628.69;5022275;28;20466;-78
2023/09/27 05:51:50;;;;;;;3.70;2.40;;;9.40;99.90;;;10.32;100.00;98636.06;5023979;28;20471;-78
2023/09/27 05:54:19;;;;;;;7.63;2.57;;;9.50;99.90;;;10.34;100.00;98631.50;5016893;28;20490;-78
2023/09/27 05:56:54;;;;;;;2.90;2.07;;;9.50;99.90;;;10.31;100.00;98624.81;5015214;28;20593;-77
2023/09/27 05:59:24;;;;;;;3.00;2.30;;;9.40;99.90;;;10.37;100.00;98631.16;5024467;28;20474;-78
2023/09/27 06:01:53;;;;;;;4.50;2.60;;;9.40;99.90;;;10.36;100.00;98627.72;5024014;28;20531;-78
2023/09/27 06:04:23;;;;;;;6.07;1.97;;;9.40;99.90;;;10.38;100.00;98628.34;5028345;28;21004;-78
2023/09/27 06:06:53;;;;;;;3.37;2.40;;;9.40;99.90;;;10.39;100.00;98627.38;5028494;28;20466;-78
2023/09/27 06:09:24;;;;;;;2.10;1.80;;;9.40;99.90;;;10.39;100.00;98616.09;5027944;28;20469;-78
2023/09/27 06:11:57;;;;;;;4.07;2.47;;;9.40;99.90;;;10.42;100.00;98623.59;5028468;28;20546;-79
2023/09/27 06:14:27;;;;;;;7.13;2.37;;;9.40;99.90;;;10.46;100.00;98611.81;5027742;28;20466;-78
2023/09/27 06:16:58;;;;;;;4.43;2.83;;;9.40;99.90;;;10.45;100.00;98607.56;5028268;28;21168;-78
2023/09/27 06:19:28;;;;;;;2.70;2.50;;;9.40;99.90;;;10.46;100.00;98603.97;5028096;28;20464;-78
2023/09/27 06:21:58;;;;;;;4.73;2.60;;;9.50;99.90;;;10.46;100.00;98607.41;5027627;28;21233;-78
2023/09/27 06:24:29;;;;;;;4.17;2.33;;;9.50;99.90;;;10.50;100.00;98610.50;5028075;28;20537;-78
2023/09/27 06:27:00;;;;;;;8.20;2.37;;;9.60;99.90;;;10.49;100.00;98614.91;5027227;28;20509;-78
2023/09/27 06:29:29;;;;;;;2.93;2.40;;;9.50;99.90;;;10.49;100.00;98614.91;5027098;28;20478;-78
2023/09/27 06:31:59;;;;;;;3.90;2.13;;;9.60;99.90;;;10.52;100.00;98613.75;5027945;28;20497;-77
2023/09/27 06:34:30;;;;;;;3.47;1.97;;;9.60;99.90;;;10.53;100.00;98616.19;5028205;28;20458;-78
2023/09/27 06:37:00;;;;;;;5.40;2.23;;;9.50;99.90;;;10.55;100.00;98618.66;5026127;28;20555;-78
2023/09/27 06:39:30;;;;;;;3.43;2.50;;;9.60;99.90;;;10.58;100.00;98619.13;5027878;28;20459;-78
2023/09/27 06:42:02;;;;;;;2.40;2.20;;;9.60;99.90;;;10.62;100.00;98629.22;5026203;28;20463;-78
2023/09/27 06:44:34;;;;;;;5.73;2.37;;;9.60;99.90;;;10.58;100.00;98626.97;5026580;28;20516;-79
2023/09/27 06:47:04;;;;;;;3.10;2.37;;;9.80;99.90;;;10.58;100.00;98624.34;5027087;28;20466;-79
2023/09/27 06:49:35;;;;;;;3.23;2.30;;;9.80;99.90;;;10.67;100.00;98629.50;5027244;28;20490;-78
2023/09/27 06:52:05;;;;;;;6.13;2.37;;;9.80;99.90;;;10.74;100.00;98633.06;5026351;28;20462;-78
2023/09/27 06:54:34;;;;;;;3.80;2.40;;;9.80;99.90;;;10.77;100.00;98633.53;5025731;28;20461;-79
2023/09/27 06:57:06;;;;;;;5.70;2.50;;;9.80;99.90;;;10.80;100.00;98625.34;5025861;28;20486;-79
2023/09/27 06:59:36;;;;;;;11.13;5.87;;;9.80;99.90;;;10.83;100.00;98621.56;5022530;28;20535;-78
2023/09/27 07:02:08;;;;;;;3.40;2.40;;;9.90;99.90;;;10.88;100.00;98629.69;5025882;28;20515;-77
2023/09/27 07:04:39;;;;;;;7.40;3.33;;;9.90;99.90;;;10.93;100.00;98630.78;5024211;28;20487;-78
2023/09/27 07:07:08;;;;;;;3.10;2.70;;;10.00;99.90;;;10.96;100.00;98637.50;5024502;28;20473;-78
2023/09/27 07:09:40;;;;;;;4.97;2.90;;;10.00;99.90;;;10.96;100.00;98633.09;5024637;28;20469;-78
2023/09/27 07:12:14;;;;;;;3.50;2.70;;;10.00;99.90;;;11.00;100.00;98629.09;5025685;28;20490;-78
2023/09/27 07:14:45;;;;;;;7.10;3.00;;;10.10;99.90;;;11.04;100.00;98633.00;5006529;28;20562;-78
2023/09/27 07:17:17;;;;;;;6.80;3.13;;;10.20;99.90;;;11.05;100.00;98637.25;5025353;28;20551;-78
2023/09/27 07:19:51;;;;;;;4.03;2.73;;;10.20;99.90;;;11.12;100.00;98632.13;5007804;28;20854;-78
2023/09/27 07:22:26;;;;;;;4.50;3.20;;;10.20;99.90;;;11.17;100.00;98629.81;5024649;28;20973;-78
2023/09/27 07:24:56;;;;;;;3.63;2.67;;;10.20;99.90;;;11.20;100.00;98632.09;5025661;28;20523;-78
2023/09/27 07:27:27;;;;;;;4.33;2.50;;;10.30;99.90;;;11.26;100.00;98633.97;5023654;28;20616;-77
2023/09/27 07:29:59;;;;;;;4.80;2.90;;;10.40;99.90;;;11.30;100.00;98632.66;5025537;28;20478;-79
2023/09/27 07:32:31;;;;;;;7.77;2.93;;;10.40;99.90;;;11.36;100.00;98634.56;5023193;28;20516;-78
2023/09/27 07:35:03;;;;;;;4.20;3.10;;;10.50;99.90;;;11.40;100.00;98633.22;5024541;28;20462;-78
2023/09/27 07:37:37;;;;;;;4.90;2.53;;;10.50;99.90;;;11.44;100.00;98631.88;5024296;28;20581;-78
2023/09/27 07:40:11;;;;;;;5.67;3.30;;;10.60;99.90;;;11.52;100.00;98633.59;5025334;28;20512;-79
2023/09/27 07:42:45;;;;;;;4.67;3.20;;;10.70;99.90;;;11.57;100.00;98618.97;5025033;28;20468;-78
2023/09/27 07:45:21;;;;;;;9.83;3.23;;;10.70;99.90;;;11.65;100.00;98627.72;5024760;28;20486;-79
2023/09/27 07:47:52;;;;;;;6.60;4.30;;;10.80;99.90;;;11.69;100.00;98623.78;5022967;28;20474;-79
2023/09/27 07:50:27;;;;;;;4.63;3.40;;;10.80;99.90;;;11.75;100.00;98623.91;5022253;28;20496;-77
2023/09/27 07:52:58;;;;;;;3.23;2.43;;;10.90;99.90;;;11.81;100.00;98617.09;5012962;28;20476;-78
2023/09/27 07:55:32;;;;;;;3.20;2.50;;;11.00;99.90;;;11.86;100.00;98620.00;5025220;28;21028;-78
2023/09/27 07:58:04;;;;;;;8.10;2.70;;;11.00;99.90;;;11.91;100.00;98617.66;5023174;28;20627;-78
2023/09/27 08:00:35;;;;;;;5.40;3.70;;;11.10;99.90;;;11.98;100.00;98618.53;5025442;28;20470;-78
2023/09/27 08:03:08;;;;;;;18.07;7.83;;;11.10;99.90;;;12.03;100.00;98613.59;5023168;28;20489;-78
2023/09/27 08:05:43;;;;;;;15.20;9.30;;;11.20;99.90;;;12.09;100.00;98612.84;5024329;28;20861;-79
2023/09/27 08:08:14;;;;;;;5.90;4.13;;;11.30;99.90;;;12.19;100.00;98609.94;5021881;28;20473;-81
2023/09/27 08:10:47;;;;;;;5.60;2.70;;;11.40;99.90;;;12.27;100.00;98612.47;5022880;28;20469;-78
2023/09/27 08:13:20;;;;;;;3.60;2.60;;;11.40;99.90;;;12.36;100.00;98614.78;5023848;28;20458;-78
2023/09/27 08:15:50;;;;;;;4.60;2.70;;;11.60;99.90;;;12.45;100.00;98603.22;5023225;28;20462;-79
2023/09/27 08:18:21;;;;;;;5.30;2.90;;;11.60;99.90;;;12.55;100.00;98606.34;5024293;28;20934;-78
2023/09/27 08:20:54;;;;;;;3.30;2.93;;;11.70;99.90;;;12.63;100.00;98597.56;5022546;28;20548;-79
2023/09/27 08:23:24;;;;;;;6.20;2.63;;;11.80;99.90;;;12.71;100.00;98600.03;5025680;28;20458;-79
2023/09/27 08:25:55;;;;;;;3.90;2.80;;;11.90;99.90;;;12.80;100.00;98588.44;5024936;28;20504;-78
2023/09/27 08:28:31;;;;;;;2.63;2.40;;;12.00;99.90;;;12.90;100.00;98577.63;5024264;28;20470;-79
2023/09/27 08:31:04;;;;;;;3.87;2.63;;;12.20;99.90;;;13.03;100.00;98590.84;5023328;28;20462;-78
2023/09/27 08:33:34;;;;;;;4.63;3.13;;;12.30;99.90;;;13.16;100.00;98588.38;5024671;28;20803;-79
2023/09/27 08:36:04;;;;;;;5.70;2.93;;;12.40;99.90;;;13.29;100.00;98590.31;5023926;28;20461;-78
2023/09/27 08:38:33;;;;;;;12.23;2.90;;;12.60;99.90;;;13.33;100.00;98589.72;5023850;28;20505;-78
2023/09/27 08:41:04;;;;;;;3.23;2.63;;;12.60;99.90;;;13.42;100.00;98593.84;5022462;28;20497;-79
2023/09/27 08:43:38;;;;;;;4.80;3.00;;;12.70;99.90;;;13.49;100.00;98599.94;5023714;28;20461;-79
2023/09/27 08:46:08;;;;;;;3.60;2.80;;;12.90;99.90;;;13.55;100.00;98593.09;5023703;28;20458;-79
2023/09/27 08:48:41;;;;;;;3.70;2.47;;;13.00;99.90;;;13.65;100.00;98592.75;5023101;28;20496;-78
2023/09/27 08:51:11;;;;;;;6.77;2.60;;;13.00;99.90;;;13.71;100.00;98590.16;5022989;28;20461;-79
2023/09/27 08:53:42;;;;;;;2.77;2.30;;;13.10;99.90;;;13.78;100.00;98598.13;5023194;28;21044;-78
2023/09/27 08:56:16;;;;;;;3.73;2.40;;;13.20;99.90;;;13.83;100.00;98593.88;5024045;28;20476;-77
2023/09/27 08:58:50;;;;;;;3.97;2.90;;;13.20;99.90;;;13.91;100.00;98604.25;5022895;28;20489;-79
2023/09/27 09:01:20;;;;;;;3.63;2.70;;;13.30;99.90;;;14.00;100.00;98602.25;5012713;28;20467;-79
2023/09/27 09:03:53;;;;;;;3.10;2.50;;;13.40;99.90;;;14.06;100.00;98597.03;5024551;28;20848;-79
2023/09/27 09:06:23;;;;;;;3.80;2.80;;;13.50;99.90;;;14.13;100.00;98597.88;5025111;28;20522;-79
2023/09/27 09:08:55;;;;;;;7.73;2.97;;;13.50;99.90;;;14.21;100.00;98603.97;5025353;28;20756;-78
2023/09/27 09:11:26;;;;;;;41.53;17.97;;;13.70;99.90;;;14.28;100.00;98610.88;5025247;28;20469;-78
2023/09/27 09:13:59;;;;;;;140.60;67.27;;;13.70;99.90;;;14.35;100.00;98603.88;5023968;28;20843;-78
2023/09/27 09:16:39;;;;;;;32.00;17.87;;;13.80;99.90;;;14.46;100.00;98607.75;5021506;28;20527;-78
2023/09/27 09:19:24;;;;;;;5.70;4.00;;;13.90;99.90;;;14.56;100.00;98601.09;5020691;28;20489;-80
2023/09/27 09:22:12;;;;;;;5.90;3.17;;;14.00;99.90;;;14.64;100.00;98605.38;5026903;28;20954;-80
2023/09/27 09:24:43;;;;;;;4.03;2.67;;;14.10;99.90;;;14.74;100.00;98607.63;5027243;28;20535;-80
2023/09/27 09:27:16;;;;;;;4.27;2.70;;;14.20;99.90;;;14.82;100.00;98612.72;5027003;28;20512;-80
2023/09/27 09:29:51;;;;;;;3.97;3.00;;;14.30;99.90;;;14.90;100.00;98607.22;5027589;28;20492;-80
2023/09/27 09:32:23;;;;;;;4.53;2.90;;;14.40;99.90;;;14.97;100.00;98600.16;5027502;28;20934;-80
2023/09/27 09:34:57;;;;;;;6.60;3.50;;;14.50;99.90;;;15.05;100.00;98599.97;5026121;28;20847;-80
2023/09/27 09:37:29;;;;;;;7.57;2.70;;;14.60;99.90;;;15.10;100.00;98595.69;5025005;28;20465;-79
2023/09/27 09:40:14;;;;;;;4.13;2.50;;;14.60;99.90;;;15.17;100.00;98589.66;5026435;28;20501;-80
2023/09/27 09:42:48;;;;;;;3.97;3.27;;;14.70;99.90;;;15.23;100.00;98591.47;5026914;28;20886;-80
2023/09/27 09:45:20;;;;;;;4.17;2.70;;;14.80;99.90;;;15.28;100.00;98587.19;5025537;28;20462;-80
2023/09/27 09:47:51;;;;;;;3.47;2.50;;;14.80;99.90;;;15.33;100.00;98582.13;5025860;28;20565;-81
2023/09/27 09:50:22;;;;;;;5.07;2.67;;;14.90;99.90;;;15.39;100.00;98591.03;5019305;28;20470;-81
2023/09/27 09:52:57;;;;;;;18.83;9.70;;;14.90;99.90;;;15.46;100.00;98583.94;5021807;28;21299;-81
2023/09/27 09:55:29;;;;;;;29.83;11.60;;;14.90;99.90;;;15.46;100.00;98579.47;5022753;28;20454;-81
2023/09/27 09:58:23;;;;;;;4.77;3.30;;;15.00;99.90;;;15.50;100.00;98578.09;5022220;28;20461;-81
2023/09/27 10:00:59;;;;;;;5.57;3.03;;;15.10;99.90;;;15.54;100.00;98568.75;5021690;28;20763;-80
2023/09/27 10:03:35;;;;;;;3.93;3.13;;;15.10;99.90;;;15.60;100.00;98570.56;5024007;28;20886;-80
2023/09/27 10:06:09;;;;;;;6.03;2.80;;;15.10;99.90;;;15.66;100.00;98570.75;5023467;28;20531;-79
2023/09/27 10:08:39;;;;;;;3.00;2.60;;;15.20;99.90;;;15.70;100.00;98571.97;5022823;28;20460;-79
2023/09/27 10:11:10;;;;;;;3.70;3.33;;;15.20;99.90;;;15.77;100.00;98564.84;5021397;28;20573;-80
2023/09/27 10:13:44;;;;;;;5.87;3.47;;;15.30;99.90;;;15.82;100.00;98562.41;5023601;28;20553;-80
2023/09/27 10:16:22;;;;;;;8.30;3.70;;;15.40;99.90;;;15.86;100.00;98553.06;5021434;28;20553;-80
2023/09/27 10:18:55;;;;;;;115.07;61.77;;;15.40;99.90;;;15.90;100.00;98548.97;5023029;28;21066;-80
2023/09/27 10:21:26;;;;;;;14.40;9.77;;;15.50;99.90;;;15.97;100.00;98549.75;5021266;28;20473;-80
2023/09/27 10:24:03;;;;;;;8.77;3.87;;;15.50;99.90;;;16.00;100.00;98538.81;5024960;28;20458;-80
2023/09/27 10:26:39;;;;;;;6.43;3.90;;;15.60;99.90;;;16.07;100.00;98540.38;5022603;28;20493;-80
2023/09/27 10:29:16;;;;;;;5.13;3.37;;;15.70;99.90;;;16.14;100.00;98529.78;5024830;28;20462;-80
2023/09/27 10:32:26;;;;;;;4.13;3.07;;;15.70;99.90;;;16.21;100.00;98535.06;5020343;28;20473;-81